Sacramento, California
Traffic Map
Current Weather Conditions
Sacramento, California
Clear
Clear
84°
Feels Like: 84°
Wind Chill: 84° Ceiling: Unl
Heat Index: 84° Visibility: 10mi
Dew Point: 41° Wind: 0mph
Humidity: 22% Direction: ° ()
Pressure: 29.87in Gusts: 0mph
Raw Report DataKSAC 190053Z AUTO 00000KT 10SM CLR 29/05 A2987 RMK AO2 SLP114 T02890050 TSNO
Traffic Incident Summary
Active as of:
Severity:
Category:
InformationThere was an issue retrieving the traffic information for this location. Please try a different location or try again shortly.
Advertisements
Track Severe Weather on mobile